createdAt,value
2022-07-25T00:00:18.752Z,3
2022-07-25T00:05:21.868Z,3.9
2022-07-25T00:10:24.444Z,2.7
2022-07-25T00:15:26.974Z,2.5
2022-07-25T00:20:29.328Z,3.5
2022-07-25T00:25:31.761Z,2.6
2022-07-25T00:30:34.440Z,4.9
2022-07-25T00:35:36.727Z,2.8
2022-07-25T00:40:39.059Z,3.4
2022-07-25T00:45:41.461Z,3
2022-07-25T00:50:43.822Z,3
2022-07-25T00:55:46.472Z,2.2
2022-07-25T01:00:49.524Z,3.2
2022-07-25T01:05:53.819Z,3.4
2022-07-25T01:10:57.033Z,3.4
2022-07-25T01:15:59.822Z,2.6
2022-07-25T01:21:02.625Z,2.5
2022-07-25T01:26:06.198Z,3
2022-07-25T01:31:08.810Z,3
2022-07-25T01:36:11.582Z,3.1
2022-07-25T01:41:22.537Z,2.8
2022-07-25T01:46:16.090Z,3
2022-07-25T01:51:19.908Z,2.9
2022-07-25T01:56:26.987Z,3.5
2022-07-25T02:01:33.927Z,3.5
2022-07-25T02:06:36.913Z,3.7
2022-07-25T02:11:39.867Z,3.2
2022-07-25T02:16:42.392Z,2.5
2022-07-25T02:21:45.266Z,3.5
2022-07-25T02:26:48.200Z,3.3
2022-07-25T02:31:50.785Z,4.3
2022-07-25T02:36:53.606Z,3.3
2022-07-25T02:41:56.501Z,2.6
2022-07-25T02:46:59.120Z,3.4
2022-07-25T02:52:01.640Z,3.3
2022-07-25T02:57:04.979Z,3.8
2022-07-25T03:02:08.270Z,5.7
2022-07-25T03:07:10.683Z,4
2022-07-25T03:12:13.133Z,4.3
2022-07-25T03:17:15.623Z,4.2
2022-07-25T03:22:18.206Z,4.7
2022-07-25T03:27:21.137Z,3.8
2022-07-25T03:32:24.030Z,3.1
2022-07-25T03:37:26.301Z,5.4
2022-07-25T03:42:32.237Z,5.2
2022-07-25T03:47:37.534Z,10.7
2022-07-25T03:52:38.871Z,6.7
2022-07-25T03:57:41.509Z,7.8
2022-07-25T04:02:44.016Z,6.3
2022-07-25T04:07:47.656Z,5.3
2022-07-25T04:12:51.196Z,6.2
2022-07-25T04:17:54.010Z,4.9
2022-07-25T04:22:57.984Z,4.9
2022-07-25T04:28:00.281Z,6.2
2022-07-25T04:33:02.909Z,5.4
2022-07-25T04:38:08.833Z,5.1
2022-07-25T04:43:14.507Z,10.4
2022-07-25T04:48:16.970Z,4
2022-07-25T04:53:19.282Z,5.3
2022-07-25T04:58:21.637Z,3.6
2022-07-25T05:03:24.207Z,3.6
2022-07-25T05:08:26.511Z,3.8
2022-07-25T05:13:29.049Z,2.5
2022-07-25T05:18:31.715Z,3.7
2022-07-25T05:23:34.330Z,3.2
2022-07-25T05:28:36.735Z,3.6
2022-07-25T05:33:39.825Z,3.8
2022-07-25T05:38:42.169Z,5
2022-07-25T05:43:44.813Z,5.5
2022-07-25T05:48:47.516Z,7
2022-07-25T05:53:50.279Z,9
2022-07-25T05:58:52.539Z,7.2
2022-07-25T06:03:54.860Z,6.5
2022-07-25T06:08:57.162Z,6.5
2022-07-25T06:13:57.461Z,9
2022-07-25T06:19:00.373Z,8.8
2022-07-25T06:24:03.113Z,8.3
2022-07-25T06:29:07.135Z,7.1
2022-07-25T06:34:10.272Z,5.9
2022-07-25T06:39:13.260Z,5.2
2022-07-25T06:44:16.271Z,3.6
2022-07-25T06:49:18.758Z,4.9
2022-07-25T06:54:21.256Z,5.4
2022-07-25T06:59:23.920Z,3.2
2022-07-25T07:04:26.520Z,5.4
2022-07-25T07:09:28.885Z,8
2022-07-25T07:14:31.631Z,3.5
2022-07-25T07:19:34.460Z,6.2
2022-07-25T07:24:41.365Z,4.6
2022-07-25T07:29:40.189Z,6.6
2022-07-25T07:34:42.741Z,3.8
2022-07-25T07:39:45.058Z,3.5
2022-07-25T07:44:47.740Z,6.3
2022-07-25T07:49:50.586Z,4.2
2022-07-25T07:54:56.462Z,3.6
2022-07-25T08:00:01.481Z,3.5
2022-07-25T08:05:04.264Z,4.4
2022-07-25T08:10:06.490Z,5.8
2022-07-25T08:15:07.272Z,4.9
2022-07-25T08:20:35.594Z,3
2022-07-25T08:25:10.522Z,3.6
2022-07-25T08:30:13.364Z,4.8
2022-07-25T08:35:15.997Z,3.8
2022-07-25T08:40:18.332Z,5.3
2022-07-25T08:45:21.347Z,5.5
2022-07-25T08:50:23.962Z,5.3
2022-07-25T08:55:26.541Z,6.8
2022-07-25T09:00:29.003Z,4.6
2022-07-25T09:05:31.629Z,4.3
2022-07-25T09:10:37.731Z,3.5
2022-07-25T09:15:40.203Z,3.7
2022-07-25T09:20:43.558Z,5.1
2022-07-25T09:25:45.823Z,3.9
2022-07-25T09:30:48.124Z,6.7
2022-07-25T09:35:50.823Z,6.9
2022-07-25T09:40:53.534Z,6.3
2022-07-25T09:45:55.847Z,5.3
2022-07-25T09:50:58.571Z,5.6
2022-07-25T09:56:01.796Z,6.5
2022-07-25T10:01:04.275Z,7.4
2022-07-25T10:06:07.412Z,8.1
2022-07-25T10:11:09.712Z,4.8
2022-07-25T10:16:12.245Z,9.6
2022-07-25T10:21:25.374Z,5.1
2022-07-25T10:26:20.176Z,4.8
2022-07-25T10:31:22.704Z,6.3
2022-07-25T10:36:25.900Z,4.1
2022-07-25T10:41:28.271Z,5.2
2022-07-25T10:46:31.250Z,4.6
2022-07-25T10:51:37.075Z,4.9
2022-07-25T10:56:43.859Z,4.2
2022-07-25T11:01:46.273Z,6.5
2022-07-25T11:06:49.068Z,7.4
2022-07-25T11:11:52.051Z,4.4
2022-07-25T11:16:54.995Z,5.5
2022-07-25T11:21:58.505Z,5.3
2022-07-25T11:27:02.025Z,5.1
2022-07-25T11:32:03.688Z,3.5
2022-07-25T11:37:06.538Z,17.9
2022-07-25T11:42:09.140Z,5.4
2022-07-25T11:47:11.621Z,6.9
2022-07-25T11:52:14.379Z,4
2022-07-25T11:57:17.502Z,5.1
2022-07-25T12:02:18.872Z,4.6
2022-07-25T12:07:26.562Z,4.8
2022-07-25T12:12:29.148Z,6.6
2022-07-25T12:17:32.200Z,5.6
2022-07-25T12:22:34.759Z,6.1
2022-07-25T12:27:37.020Z,5.5
2022-07-25T12:32:40.040Z,8.3
2022-07-25T12:37:42.600Z,8.5
2022-07-25T12:42:45.529Z,4.6
2022-07-25T12:47:48.354Z,3.7
2022-07-25T12:52:51.117Z,4.3
2022-07-25T12:57:53.401Z,7.7
2022-07-25T13:02:55.894Z,5.5
2022-07-25T13:07:58.978Z,10.2
2022-07-25T13:13:01.418Z,6.3
2022-07-25T13:18:03.894Z,4.2
2022-07-25T13:23:06.145Z,4.8
2022-07-25T13:28:11.120Z,7.1
2022-07-25T13:33:15.995Z,5.8
2022-07-25T13:38:18.464Z,5.1
2022-07-25T13:43:21.297Z,4.6
2022-07-25T13:48:31.679Z,4
2022-07-25T13:53:29.567Z,3.4
2022-07-25T13:58:32.626Z,7.3
2022-07-25T14:03:35.643Z,5.1
2022-07-25T14:08:40.861Z,7.4
2022-07-25T14:13:43.469Z,5.7
2022-07-25T14:18:46.333Z,6.5
2022-07-25T14:23:48.889Z,3.7
2022-07-25T14:28:51.160Z,5.9
2022-07-25T14:33:53.639Z,4.9
2022-07-25T14:38:56.093Z,4.8
2022-07-25T14:43:59.539Z,3.9
2022-07-25T14:49:02.177Z,5.7
2022-07-25T14:54:05.985Z,4.7
2022-07-25T14:59:08.615Z,4.4
2022-07-25T15:04:12.327Z,3.9
2022-07-25T15:09:15.021Z,6
2022-07-25T15:14:17.311Z,4.8
2022-07-25T15:19:19.694Z,6.7
2022-07-25T15:24:27.229Z,5
2022-07-25T15:29:27.683Z,3.7
2022-07-25T15:34:30.165Z,6.5
2022-07-25T15:39:32.464Z,5.8
2022-07-25T15:44:35.183Z,4.1
2022-07-25T15:49:37.904Z,4.1
2022-07-25T15:54:40.441Z,6.3
2022-07-25T15:59:42.680Z,4.7
2022-07-25T16:04:45.285Z,7.3
2022-07-25T16:09:48.022Z,6.2
2022-07-25T16:14:50.750Z,3.1
2022-07-25T16:19:53.227Z,4.7
2022-07-25T16:24:55.674Z,5.1
2022-07-25T16:29:57.970Z,3.9
2022-07-25T16:35:00.736Z,3.9
2022-07-25T16:40:04.022Z,5.9
2022-07-25T16:45:06.435Z,6.8
2022-07-25T16:50:08.795Z,4.4
2022-07-25T16:55:11.453Z,5.1
2022-07-25T17:00:13.781Z,4.2
2022-07-25T17:05:16.169Z,4
2022-07-25T17:10:20.191Z,6.3
2022-07-25T17:15:22.967Z,5
2022-07-25T17:20:25.463Z,8.2
2022-07-25T17:25:27.900Z,11.1
2022-07-25T17:30:30.467Z,12.2
2022-07-25T17:35:33.432Z,8.4
2022-07-25T17:40:35.995Z,15.8
2022-07-25T17:45:38.358Z,20.5
2022-07-25T17:50:40.981Z,27.6
2022-07-25T17:55:43.554Z,33
2022-07-25T18:00:47.243Z,29.5
2022-07-25T18:05:49.695Z,39.6
2022-07-25T18:10:52.308Z,31.4
2022-07-25T18:15:54.605Z,40.6
2022-07-25T18:20:57.522Z,33.1
2022-07-25T18:26:01.131Z,35
2022-07-25T18:31:03.659Z,22.7
2022-07-25T18:36:07.680Z,16.2
2022-07-25T18:41:28.463Z,14.7
2022-07-25T18:46:12.271Z,17.2
2022-07-25T18:51:18.019Z,11.1
2022-07-25T18:56:21.060Z,12.9
2022-07-25T19:01:23.632Z,12.9
2022-07-25T19:06:29.311Z,17.5
2022-07-25T19:11:32.656Z,13.6
2022-07-25T19:16:42.547Z,7.2
2022-07-25T19:21:45.486Z,10.2
2022-07-25T19:26:48.794Z,10.7
2022-07-25T19:31:51.467Z,7
2022-07-25T19:36:54.303Z,7.3
2022-07-25T19:41:57.134Z,19.5
2022-07-25T19:46:59.840Z,9.7
2022-07-25T19:52:01.164Z,13.7
2022-07-25T19:57:03.501Z,13.2
2022-07-25T20:02:04.198Z,10.2
2022-07-25T20:07:08.678Z,12.4
2022-07-25T20:12:11.615Z,11.7
2022-07-25T20:17:14.003Z,8
2022-07-25T20:22:16.874Z,7.4
2022-07-25T20:27:19.455Z,8.1
2022-07-25T20:32:22.521Z,6.5
2022-07-25T20:37:25.371Z,8.8
2022-07-25T20:42:27.866Z,7.8
2022-07-25T20:47:31.292Z,8.8
2022-07-25T20:52:33.676Z,7.5
2022-07-25T20:57:36.036Z,8.9
2022-07-25T21:02:38.573Z,12.6
2022-07-25T21:07:41.675Z,7.6
2022-07-25T21:12:45.964Z,6.5
2022-07-25T21:17:48.396Z,8.4
2022-07-25T21:22:51.215Z,6.3
2022-07-25T21:27:53.767Z,8.2
2022-07-25T21:32:56.042Z,6
2022-07-25T21:37:58.764Z,8.1
2022-07-25T21:43:01.207Z,7
2022-07-25T21:48:03.600Z,6.2
2022-07-25T21:53:06.559Z,4.8
2022-07-25T21:58:09.311Z,5.1
2022-07-25T22:03:11.573Z,4.7
2022-07-25T22:08:13.834Z,3.4
2022-07-25T22:13:16.355Z,5.6
2022-07-25T22:18:18.652Z,4.4
2022-07-25T22:23:22.199Z,5.6
2022-07-25T22:28:30.245Z,5.3
2022-07-25T22:33:32.538Z,7.2
2022-07-25T22:38:35.075Z,3.9
2022-07-25T22:43:57.102Z,5.1
2022-07-25T22:48:41.437Z,5.3
2022-07-25T22:53:44.324Z,3.8
2022-07-25T22:58:48.701Z,5
2022-07-25T23:03:51.652Z,3.9
2022-07-25T23:08:54.680Z,4.5
2022-07-25T23:13:57.141Z,5.1
2022-07-25T23:18:59.445Z,6.2
2022-07-25T23:24:02.218Z,5
2022-07-25T23:29:05.103Z,4.7
2022-07-25T23:34:09.567Z,4.7
2022-07-25T23:39:14.934Z,5.3
2022-07-25T23:44:18.026Z,26.9
2022-07-25T23:49:25.986Z,345.6
2022-07-25T23:54:29.382Z,194.3
2022-07-25T23:59:30.192Z,200.2
